createdAt,value
2023-01-30T00:02:15.232Z,24.27
2023-01-30T00:04:43.454Z,21.00
2023-01-30T00:07:11.604Z,20.57
2023-01-30T00:09:41.134Z,32.17
2023-01-30T00:12:09.278Z,21.40
2023-01-30T00:14:37.357Z,19.10
2023-01-30T00:17:06.886Z,20.70
2023-01-30T00:19:34.983Z,24.60
2023-01-30T00:22:03.055Z,19.43
2023-01-30T00:24:31.318Z,18.40
2023-01-30T00:26:59.416Z,18.10
2023-01-30T00:29:27.495Z,17.40
2023-01-30T00:31:55.867Z,23.47
2023-01-30T00:34:25.335Z,17.43
2023-01-30T00:37:07.441Z,17.43
2023-01-30T00:39:36.504Z,21.63
2023-01-30T00:42:22.393Z,17.83
2023-01-30T00:45:07.790Z,18.23
2023-01-30T00:47:35.944Z,17.23
2023-01-30T00:50:06.427Z,19.27
2023-01-30T00:52:34.522Z,23.80
2023-01-30T00:55:02.723Z,20.40
2023-01-30T00:57:30.888Z,21.43
2023-01-30T00:59:58.995Z,17.10
2023-01-30T01:02:27.187Z,19.10
2023-01-30T01:04:55.424Z,18.20
2023-01-30T01:07:25.004Z,19.77
2023-01-30T01:09:53.131Z,17.37
2023-01-30T01:12:21.201Z,15.80
2023-01-30T01:14:49.340Z,17.43
2023-01-30T01:17:17.654Z,16.30
2023-01-30T01:19:45.795Z,21.27
2023-01-30T01:22:14.004Z,17.40
2023-01-30T01:24:43.492Z,18.20
2023-01-30T01:27:11.603Z,15.97
2023-01-30T01:29:40.680Z,19.23
2023-01-30T01:32:08.813Z,15.60
2023-01-30T01:34:36.968Z,13.90
2023-01-30T01:37:05.092Z,16.50
2023-01-30T01:39:47.095Z,17.77
2023-01-30T01:42:16.702Z,14.73
2023-01-30T01:45:15.367Z,15.47
2023-01-30T01:47:48.075Z,18.40
2023-01-30T01:50:20.439Z,19.40
2023-01-30T01:52:52.181Z,20.70
2023-01-30T01:55:22.490Z,19.80
2023-01-30T01:57:54.786Z,16.57
2023-01-30T02:00:24.723Z,15.30
2023-01-30T02:02:57.306Z,17.57
2023-01-30T02:05:26.890Z,20.53
2023-01-30T02:08:03.969Z,16.00
2023-01-30T02:10:41.148Z,20.50
2023-01-30T02:13:11.442Z,15.07
2023-01-30T02:15:40.247Z,16.53
2023-01-30T02:18:08.805Z,16.57
2023-01-30T02:20:55.334Z,17.50
2023-01-30T02:23:56.264Z,18.00
2023-01-30T02:27:01.375Z,17.40
2023-01-30T02:29:58.426Z,20.80
2023-01-30T02:32:35.395Z,22.60
2023-01-30T02:35:11.150Z,22.90
2023-01-30T02:37:50.527Z,25.30
2023-01-30T02:40:35.231Z,24.47
2023-01-30T02:43:10.220Z,21.10
2023-01-30T02:45:46.100Z,26.77
2023-01-30T02:48:21.843Z,21.83
2023-01-30T02:50:55.050Z,19.70
2023-01-30T02:53:23.298Z,24.27
2023-01-30T02:55:51.579Z,26.87
2023-01-30T02:58:23.744Z,22.10
2023-01-30T03:01:08.934Z,20.03
2023-01-30T03:03:59.071Z,23.10
2023-01-30T03:06:38.053Z,27.93
2023-01-30T03:09:16.936Z,24.33
2023-01-30T03:11:49.907Z,24.47
2023-01-30T03:14:24.348Z,23.73
2023-01-30T03:16:55.326Z,21.80
2023-01-30T03:19:25.264Z,23.57
2023-01-30T03:21:53.408Z,28.70
2023-01-30T03:24:22.046Z,22.50
2023-01-30T03:26:57.361Z,21.70
2023-01-30T03:29:26.005Z,21.10
2023-01-30T03:31:54.211Z,22.20
2023-01-30T03:34:23.967Z,22.10
2023-01-30T03:36:52.257Z,21.70
2023-01-30T03:39:20.645Z,23.63
2023-01-30T03:41:48.944Z,22.00
2023-01-30T03:44:18.735Z,18.30
2023-01-30T03:46:47.198Z,19.43
2023-01-30T03:49:15.374Z,27.37
2023-01-30T03:51:44.980Z,21.03
2023-01-30T03:54:13.131Z,18.57
2023-01-30T03:56:41.283Z,20.60
2023-01-30T03:59:10.240Z,22.00
2023-01-30T04:01:44.132Z,22.60
2023-01-30T04:04:12.377Z,20.23
2023-01-30T04:06:40.625Z,20.70
2023-01-30T04:09:10.379Z,18.03
2023-01-30T04:11:43.525Z,19.13
2023-01-30T04:14:12.067Z,19.30
2023-01-30T04:16:55.056Z,20.10
2023-01-30T04:19:41.598Z,18.00
2023-01-30T04:22:09.775Z,19.57
2023-01-30T04:24:39.214Z,19.43
2023-01-30T04:27:09.292Z,19.63
2023-01-30T04:29:42.554Z,19.70
2023-01-30T04:32:12.599Z,18.67
2023-01-30T04:34:40.690Z,19.70
2023-01-30T04:37:09.002Z,17.87
2023-01-30T04:39:39.528Z,16.43
2023-01-30T04:42:09.056Z,20.67
2023-01-30T04:44:45.573Z,17.00
2023-01-30T04:47:18.514Z,14.53
2023-01-30T04:49:46.627Z,16.97
2023-01-30T04:52:17.054Z,17.90
2023-01-30T04:54:46.527Z,19.30
2023-01-30T04:57:14.821Z,15.80
2023-01-30T04:59:43.150Z,19.17
2023-01-30T05:02:14.575Z,15.43
2023-01-30T05:04:42.885Z,17.70
2023-01-30T05:07:11.871Z,18.70
2023-01-30T05:09:39.949Z,18.60
2023-01-30T05:12:09.551Z,17.00
2023-01-30T05:14:41.302Z,19.00
2023-01-30T05:17:09.700Z,18.03
2023-01-30T05:19:37.820Z,17.67
2023-01-30T05:22:05.924Z,15.17
2023-01-30T05:24:34.073Z,17.40
2023-01-30T05:27:02.174Z,17.00
2023-01-30T05:29:31.793Z,19.67
2023-01-30T05:31:59.875Z,20.17
2023-01-30T05:34:28.140Z,17.03
2023-01-30T05:36:56.251Z,17.57
2023-01-30T05:39:24.433Z,17.47
2023-01-30T05:41:52.533Z,15.23
2023-01-30T05:44:20.670Z,14.00
2023-01-30T05:46:50.581Z,19.10
2023-01-30T05:49:19.027Z,18.53
2023-01-30T05:51:47.135Z,12.70
2023-01-30T05:54:15.518Z,20.23
2023-01-30T05:56:43.660Z,17.70
2023-01-30T05:59:13.363Z,13.30
2023-01-30T06:01:41.436Z,16.00
2023-01-30T06:04:10.942Z,15.07
2023-01-30T06:06:39.162Z,15.07
2023-01-30T06:09:07.231Z,22.07
2023-01-30T06:11:35.363Z,14.30
2023-01-30T06:14:03.510Z,17.17
2023-01-30T06:16:31.659Z,15.13
2023-01-30T06:18:59.778Z,14.63
2023-01-30T06:21:29.280Z,14.93
2023-01-30T06:23:57.392Z,15.80
2023-01-30T06:26:25.479Z,16.27
2023-01-30T06:28:53.598Z,13.17
2023-01-30T06:31:21.740Z,17.30
2023-01-30T06:33:50.018Z,20.47
2023-01-30T06:36:18.124Z,16.70
2023-01-30T06:38:48.726Z,15.07
2023-01-30T06:41:16.840Z,12.50
2023-01-30T06:43:44.916Z,15.80
2023-01-30T06:46:13.033Z,16.03
2023-01-30T06:48:41.124Z,13.27
2023-01-30T06:51:09.236Z,14.53
2023-01-30T06:53:37.787Z,15.70
2023-01-30T06:56:07.854Z,16.20
2023-01-30T06:58:36.200Z,18.23
2023-01-30T07:01:04.303Z,17.77
2023-01-30T07:03:32.449Z,15.87
2023-01-30T07:06:00.607Z,19.47
2023-01-30T07:08:28.726Z,17.10
2023-01-30T07:10:56.829Z,19.20
2023-01-30T07:13:26.260Z,17.47
2023-01-30T07:15:54.329Z,17.83
2023-01-30T07:18:22.369Z,16.97
2023-01-30T07:20:50.921Z,15.63
2023-01-30T07:23:19.623Z,17.03
2023-01-30T07:25:47.716Z,18.90
2023-01-30T07:28:15.847Z,15.90
2023-01-30T07:30:45.595Z,17.70
2023-01-30T07:33:13.867Z,13.60
2023-01-30T07:35:41.888Z,16.57
2023-01-30T07:38:09.918Z,18.90
2023-01-30T07:40:38.245Z,16.93
2023-01-30T07:43:07.847Z,15.70
2023-01-30T07:45:38.044Z,20.30
2023-01-30T07:48:07.777Z,18.70
2023-01-30T07:50:37.341Z,16.50
2023-01-30T07:53:06.272Z,18.70
2023-01-30T07:55:34.841Z,15.33
2023-01-30T07:58:02.912Z,15.80
2023-01-30T08:00:31.564Z,14.63
2023-01-30T08:02:59.693Z,20.60
2023-01-30T08:05:29.070Z,15.03
2023-01-30T08:07:57.754Z,20.30
2023-01-30T08:10:25.977Z,17.37
2023-01-30T08:12:54.058Z,17.70
2023-01-30T08:15:23.071Z,17.73
2023-01-30T08:17:58.452Z,13.73
2023-01-30T08:20:29.497Z,16.27
2023-01-30T08:22:59.431Z,13.80
2023-01-30T08:25:27.616Z,18.40
2023-01-30T08:27:56.203Z,16.47
2023-01-30T08:30:24.950Z,15.40
2023-01-30T08:32:53.116Z,19.57
2023-01-30T08:35:21.534Z,21.07
2023-01-30T08:57:02.806Z,21.33
2023-01-30T08:59:30.979Z,16.83
2023-01-30T09:01:59.151Z,17.40
2023-01-30T09:04:27.277Z,20.57
2023-01-30T09:06:56.288Z,25.20
2023-01-30T09:09:24.504Z,17.90
2023-01-30T09:11:52.642Z,19.83
2023-01-30T09:14:22.151Z,18.83
2023-01-30T09:16:55.564Z,17.97
2023-01-30T09:19:24.004Z,18.80
2023-01-30T09:21:52.147Z,18.67
2023-01-30T09:24:20.871Z,15.80
2023-01-30T09:26:49.470Z,17.93
2023-01-30T09:29:17.618Z,18.47
2023-01-30T09:31:47.186Z,15.63
2023-01-30T09:34:15.428Z,22.93
2023-01-30T09:36:43.596Z,17.60
2023-01-30T09:39:11.677Z,16.13
2023-01-30T09:42:01.427Z,18.70
2023-01-30T09:45:01.367Z,17.97
2023-01-30T09:47:40.611Z,18.60
2023-01-30T09:50:24.893Z,15.30
2023-01-30T09:52:59.033Z,18.87
2023-01-30T09:55:29.269Z,15.40
2023-01-30T09:57:59.720Z,15.13
2023-01-30T10:00:33.212Z,15.87
2023-01-30T10:03:10.660Z,18.00
2023-01-30T10:05:44.788Z,16.10
2023-01-30T10:08:36.913Z,14.50
2023-01-30T10:11:18.901Z,15.97
2023-01-30T10:14:07.694Z,20.53
2023-01-30T10:16:45.495Z,16.47
2023-01-30T10:19:55.510Z,14.90
2023-01-30T10:22:40.466Z,16.70
2023-01-30T10:25:21.637Z,16.43
2023-01-30T10:27:53.749Z,13.77
2023-01-30T10:30:22.482Z,16.43
2023-01-30T10:32:55.753Z,15.43
2023-01-30T10:35:30.342Z,18.80
2023-01-30T10:38:05.524Z,18.53
2023-01-30T10:40:40.962Z,17.70
2023-01-30T10:43:18.084Z,19.30
2023-01-30T10:45:56.046Z,20.50
2023-01-30T10:48:45.769Z,20.80
2023-01-30T10:51:26.198Z,19.17
2023-01-30T10:54:01.016Z,20.93
2023-01-30T10:56:38.080Z,17.03
2023-01-30T10:59:26.363Z,18.70
2023-01-30T11:02:01.315Z,18.93
2023-01-30T11:04:37.277Z,18.57
2023-01-30T11:07:07.625Z,21.00
2023-01-30T11:09:44.074Z,19.93
2023-01-30T11:12:12.863Z,18.77
2023-01-30T11:14:55.063Z,18.57
2023-01-30T11:17:29.717Z,16.10
2023-01-30T11:19:59.400Z,17.77
2023-01-30T11:22:34.257Z,18.87
2023-01-30T11:25:05.028Z,20.73
2023-01-30T11:27:34.946Z,16.73
2023-01-30T11:30:15.728Z,19.90
2023-01-30T11:32:45.059Z,18.00
2023-01-30T11:35:24.556Z,18.07
2023-01-30T11:37:54.652Z,20.83
2023-01-30T11:40:28.018Z,19.57
2023-01-30T11:43:04.299Z,19.77
2023-01-30T11:45:37.508Z,18.80
2023-01-30T11:48:31.295Z,18.67
2023-01-30T11:51:04.607Z,20.20
2023-01-30T11:53:38.862Z,20.70
2023-01-30T11:56:13.009Z,18.47
2023-01-30T11:58:42.405Z,18.93
2023-01-30T12:01:12.156Z,15.97
2023-01-30T12:03:48.416Z,19.07
2023-01-30T12:06:24.521Z,19.33
2023-01-30T12:08:57.459Z,18.77
2023-01-30T12:11:29.512Z,21.50
2023-01-30T12:14:07.967Z,18.37
2023-01-30T12:16:48.146Z,18.20
2023-01-30T12:19:29.089Z,19.70
2023-01-30T12:22:02.900Z,22.60
2023-01-30T12:24:40.588Z,17.53
2023-01-30T12:27:16.946Z,21.13
2023-01-30T12:29:56.682Z,19.30
2023-01-30T12:32:27.880Z,20.07
2023-01-30T12:34:56.440Z,19.03
2023-01-30T12:37:45.651Z,17.43
2023-01-30T12:40:24.877Z,18.67
2023-01-30T12:43:13.986Z,20.17
2023-01-30T12:45:46.850Z,20.47
2023-01-30T12:48:44.345Z,19.80
2023-01-30T12:51:29.256Z,18.13
2023-01-30T12:54:05.911Z,18.03
2023-01-30T12:56:58.822Z,23.90
2023-01-30T12:59:34.812Z,20.97
2023-01-30T13:02:36.275Z,23.60
2023-01-30T13:05:23.443Z,21.80
2023-01-30T13:08:07.713Z,18.60
2023-01-30T13:10:40.995Z,20.23
2023-01-30T13:13:19.109Z,21.80
2023-01-30T13:15:59.533Z,24.30
2023-01-30T13:18:33.553Z,16.87
2023-01-30T13:21:09.299Z,16.67
2023-01-30T13:23:49.853Z,22.37
2023-01-30T13:26:20.368Z,20.87
2023-01-30T13:28:53.107Z,20.23
2023-01-30T13:31:24.721Z,19.00
2023-01-30T13:33:59.735Z,21.13
2023-01-30T13:36:34.447Z,21.90
2023-01-30T13:39:06.753Z,20.17
2023-01-30T13:41:39.257Z,21.30
2023-01-30T13:44:18.934Z,22.03
2023-01-30T13:46:48.479Z,19.77
2023-01-30T13:49:24.805Z,20.30
2023-01-30T13:51:58.359Z,16.77
2023-01-30T13:54:38.067Z,17.57
2023-01-30T13:57:16.924Z,18.43
2023-01-30T14:00:17.490Z,26.53
2023-01-30T14:03:17.946Z,15.57
2023-01-30T14:06:20.474Z,18.13
2023-01-30T14:08:55.036Z,20.67
2023-01-30T14:11:37.054Z,18.80
2023-01-30T14:14:21.534Z,16.13
2023-01-30T14:16:53.520Z,17.40
2023-01-30T14:19:41.678Z,24.17
2023-01-30T14:22:23.694Z,19.43
2023-01-30T14:25:25.051Z,18.87
2023-01-30T14:27:54.392Z,14.83
2023-01-30T14:30:38.317Z,21.27
2023-01-30T14:33:36.181Z,18.40
2023-01-30T14:36:35.531Z,24.10
2023-01-30T14:39:49.355Z,19.57
2023-01-30T14:42:25.408Z,16.70
2023-01-30T14:45:05.203Z,16.17
2023-01-30T14:47:43.775Z,18.40
2023-01-30T14:50:23.834Z,17.20
2023-01-30T14:52:57.474Z,17.87
2023-01-30T14:55:29.634Z,15.53
2023-01-30T14:58:00.982Z,22.07
2023-01-30T15:00:32.385Z,15.53
2023-01-30T15:03:04.371Z,16.47
2023-01-30T15:05:38.377Z,15.10
2023-01-30T15:08:19.293Z,15.27
2023-01-30T15:11:09.604Z,18.77
2023-01-30T15:14:03.415Z,15.77
2023-01-30T15:17:05.973Z,14.40
2023-01-30T15:19:58.099Z,16.20
2023-01-30T15:22:36.477Z,15.47
2023-01-30T15:25:32.036Z,17.63
2023-01-30T15:28:07.448Z,17.40
2023-01-30T15:31:04.834Z,14.70
2023-01-30T15:33:33.073Z,20.43
2023-01-30T15:36:01.718Z,24.13
2023-01-30T15:38:34.011Z,20.20
2023-01-30T15:41:04.337Z,18.77
2023-01-30T15:44:01.116Z,17.57
2023-01-30T15:46:38.036Z,16.50
2023-01-30T15:49:19.417Z,19.57
2023-01-30T15:51:47.871Z,17.73
2023-01-30T15:54:20.839Z,16.63
2023-01-30T15:56:50.122Z,18.30
2023-01-30T15:59:29.395Z,17.77
2023-01-30T16:02:06.127Z,20.50
2023-01-30T16:04:34.415Z,17.83
2023-01-30T16:07:15.860Z,15.50
2023-01-30T16:10:06.919Z,14.60
2023-01-30T16:12:36.517Z,21.20
2023-01-30T16:15:29.908Z,27.50
2023-01-30T16:17:59.396Z,17.93
2023-01-30T16:20:27.673Z,19.13
2023-01-30T16:22:56.219Z,19.20
2023-01-30T16:25:29.832Z,18.63
2023-01-30T16:27:58.668Z,15.83
2023-01-30T16:30:29.733Z,19.07
2023-01-30T16:32:58.434Z,17.03
2023-01-30T16:35:35.957Z,15.20
2023-01-30T16:38:05.529Z,16.30
2023-01-30T16:40:46.929Z,15.20
2023-01-30T16:43:21.620Z,15.37
2023-01-30T16:46:37.338Z,15.97
2023-01-30T16:49:06.774Z,15.27
2023-01-30T16:51:35.009Z,14.07
2023-01-30T16:54:05.331Z,19.67
2023-01-30T16:56:36.147Z,13.90
2023-01-30T16:59:04.980Z,15.30
2023-01-30T17:01:42.947Z,15.13
2023-01-30T17:04:21.357Z,13.30
2023-01-30T17:06:56.611Z,13.60
2023-01-30T17:09:46.038Z,15.77
2023-01-30T17:12:43.603Z,14.90
2023-01-30T17:15:42.064Z,15.70
2023-01-30T17:18:11.067Z,16.00
2023-01-30T17:20:45.417Z,16.47
2023-01-30T17:23:18.382Z,15.57
2023-01-30T17:25:49.252Z,17.37
2023-01-30T17:28:21.702Z,17.20
2023-01-30T17:30:50.975Z,15.60
2023-01-30T17:33:19.186Z,12.67
2023-01-30T17:35:47.470Z,14.07
2023-01-30T17:38:15.623Z,14.20
2023-01-30T17:40:43.965Z,16.40
2023-01-30T17:43:13.068Z,11.93
2023-01-30T17:45:42.722Z,14.10
2023-01-30T17:48:13.172Z,12.23
2023-01-30T17:50:41.612Z,12.03
2023-01-30T17:53:10.041Z,15.23
2023-01-30T17:55:38.276Z,14.97
2023-01-30T17:58:06.479Z,14.93
2023-01-30T18:00:34.695Z,13.87
2023-01-30T18:03:04.421Z,12.23
2023-01-30T18:05:32.658Z,12.20
2023-01-30T18:08:01.693Z,13.20
2023-01-30T18:10:30.179Z,14.43
2023-01-30T18:12:58.296Z,13.20
2023-01-30T18:15:26.829Z,16.60
2023-01-30T18:17:56.543Z,16.47
2023-01-30T18:20:26.191Z,14.20
2023-01-30T18:22:54.417Z,17.40
2023-01-30T18:25:22.736Z,11.27
2023-01-30T18:27:51.035Z,11.20
2023-01-30T18:30:20.148Z,12.93
2023-01-30T18:32:53.893Z,14.07
2023-01-30T18:35:23.299Z,11.80
2023-01-30T18:37:52.895Z,11.73
2023-01-30T18:40:22.176Z,12.23
2023-01-30T18:42:50.490Z,11.33
2023-01-30T18:45:18.833Z,12.43
2023-01-30T18:47:47.115Z,11.07
2023-01-30T18:50:15.422Z,9.80
2023-01-30T18:52:43.617Z,10.43
2023-01-30T18:55:13.209Z,8.67
2023-01-30T18:57:41.360Z,9.47
2023-01-30T19:00:10.905Z,11.53
2023-01-30T19:02:39.449Z,10.63
2023-01-30T19:05:09.088Z,12.23
2023-01-30T19:07:37.592Z,8.90
2023-01-30T19:10:06.203Z,7.20
2023-01-30T19:12:53.557Z,7.60
2023-01-30T19:15:21.732Z,9.20
2023-01-30T19:17:49.912Z,7.97
2023-01-30T19:20:19.696Z,7.70
2023-01-30T19:22:49.868Z,8.27
2023-01-30T19:25:18.386Z,7.20
2023-01-30T19:27:47.901Z,9.50
2023-01-30T19:30:16.586Z,5.93
2023-01-30T19:32:44.827Z,8.03
2023-01-30T19:35:12.952Z,21.20
2023-01-30T19:37:41.079Z,10.30
2023-01-30T19:40:11.055Z,7.90
2023-01-30T19:42:42.548Z,6.47
2023-01-30T19:45:14.942Z,5.87
2023-01-30T19:47:43.162Z,4.40
2023-01-30T19:50:12.373Z,4.23
2023-01-30T19:52:41.190Z,5.20
2023-01-30T19:55:10.085Z,4.90
2023-01-30T19:57:38.915Z,3.70
2023-01-30T20:00:08.364Z,7.27
2023-01-30T20:02:38.323Z,6.00
2023-01-30T20:05:07.682Z,5.80
2023-01-30T20:07:37.313Z,3.97
2023-01-30T20:10:06.326Z,8.33
2023-01-30T20:12:35.634Z,7.63
2023-01-30T20:15:05.619Z,5.40
2023-01-30T20:17:34.343Z,5.87
2023-01-30T20:20:04.047Z,8.60
2023-01-30T20:22:32.355Z,5.80
2023-01-30T20:25:00.461Z,4.90
2023-01-30T20:27:28.587Z,5.90
2023-01-30T20:29:56.876Z,6.40
2023-01-30T20:32:25.023Z,6.90
2023-01-30T20:34:53.183Z,5.80
2023-01-30T20:37:22.652Z,8.23
2023-01-30T20:39:51.070Z,8.47
2023-01-30T20:42:19.845Z,4.77
2023-01-30T20:44:48.134Z,8.00
2023-01-30T20:47:16.353Z,7.20
2023-01-30T20:49:44.656Z,5.43
2023-01-30T20:52:13.079Z,8.03
2023-01-30T20:54:42.522Z,4.40
2023-01-30T20:57:10.734Z,5.57
2023-01-30T20:59:38.899Z,4.40
2023-01-30T21:02:07.414Z,7.00
2023-01-30T21:04:35.580Z,4.40
2023-01-30T21:07:04.942Z,5.23
2023-01-30T21:09:33.147Z,7.40
2023-01-30T21:12:02.672Z,19.80
2023-01-30T21:14:30.853Z,4.23
2023-01-30T21:16:59.046Z,7.10
2023-01-30T21:19:27.338Z,5.80
2023-01-30T21:21:57.322Z,5.90
2023-01-30T21:24:28.386Z,4.77
2023-01-30T21:26:57.538Z,5.47
2023-01-30T21:29:28.841Z,6.10
2023-01-30T21:31:57.958Z,5.50
2023-01-30T21:34:26.181Z,8.17
2023-01-30T21:37:11.622Z,5.97
2023-01-30T21:39:57.045Z,5.23
2023-01-30T21:42:43.138Z,10.60
2023-01-30T21:45:12.680Z,5.77
2023-01-30T21:47:41.196Z,6.93
2023-01-30T21:50:10.797Z,5.20
2023-01-30T21:52:39.146Z,4.10
2023-01-30T21:55:07.876Z,7.10
2023-01-30T21:57:36.605Z,6.60
2023-01-30T22:00:05.518Z,6.93
2023-01-30T22:02:35.006Z,5.80
2023-01-30T22:05:03.243Z,7.17
2023-01-30T22:07:32.050Z,7.17
2023-01-30T22:10:01.482Z,9.70
2023-01-30T22:12:31.602Z,6.47
2023-01-30T22:14:59.760Z,5.67
2023-01-30T22:17:28.157Z,7.00
2023-01-30T22:19:57.764Z,4.67
2023-01-30T22:22:26.190Z,5.60
2023-01-30T22:24:54.686Z,5.33
2023-01-30T22:27:22.904Z,7.90
2023-01-30T22:29:51.631Z,6.03
2023-01-30T22:32:19.769Z,5.57
2023-01-30T22:34:47.849Z,6.60
2023-01-30T22:37:17.328Z,8.23
2023-01-30T22:39:45.361Z,4.97
2023-01-30T22:42:13.778Z,5.27
2023-01-30T22:44:42.054Z,9.67
2023-01-30T22:47:10.388Z,7.23
2023-01-30T22:49:38.596Z,5.60
2023-01-30T22:52:06.889Z,11.80
2023-01-30T22:54:37.142Z,7.20
2023-01-30T22:57:05.341Z,4.57
2023-01-30T22:59:33.763Z,5.00
2023-01-30T23:02:02.182Z,5.57
2023-01-30T23:04:30.469Z,5.20
2023-01-30T23:06:59.670Z,4.90
2023-01-30T23:09:27.856Z,5.73
2023-01-30T23:12:16.182Z,4.90
2023-01-30T23:14:45.039Z,4.67
2023-01-30T23:17:30.643Z,5.67
2023-01-30T23:19:58.945Z,5.03
2023-01-30T23:22:27.142Z,5.83
2023-01-30T23:24:55.227Z,7.53
2023-01-30T23:27:24.757Z,4.30
2023-01-30T23:29:53.152Z,8.50
2023-01-30T23:32:23.515Z,6.47
2023-01-30T23:34:51.659Z,7.23
2023-01-30T23:37:40.504Z,7.80
2023-01-30T23:40:10.714Z,10.17
2023-01-30T23:42:40.517Z,6.07
2023-01-30T23:45:09.815Z,8.47
2023-01-30T23:47:37.948Z,6.20
2023-01-30T23:50:06.534Z,6.10
2023-01-30T23:52:35.166Z,5.30
2023-01-30T23:55:03.319Z,6.77
2023-01-30T23:57:31.458Z,6.80
